createdAt,value
2018-01-25T00:00:59.178Z,10.65
2018-01-25T00:01:59.198Z,10.66
2018-01-25T00:02:59.214Z,10.63
2018-01-25T00:03:59.231Z,10.56
2018-01-25T00:04:59.255Z,10.44
2018-01-25T00:05:59.274Z,10.40
2018-01-25T00:06:59.294Z,10.52
2018-01-25T00:07:59.311Z,10.51
2018-01-25T00:08:59.333Z,10.44
2018-01-25T00:09:59.353Z,10.47
2018-01-25T00:10:59.372Z,10.36
2018-01-25T00:11:59.387Z,10.30
2018-01-25T00:12:59.410Z,10.32
2018-01-25T00:13:59.424Z,10.34
2018-01-25T00:14:59.445Z,10.24
2018-01-25T00:15:59.468Z,10.21
2018-01-25T00:16:59.483Z,10.14
2018-01-25T00:17:59.504Z,10.19
2018-01-25T00:18:59.522Z,10.17
2018-01-25T00:19:59.541Z,10.22
2018-01-25T00:20:59.560Z,10.17
2018-01-25T00:21:59.579Z,10.21
2018-01-25T00:22:59.598Z,10.22
2018-01-25T00:23:59.614Z,10.15
2018-01-25T00:24:59.634Z,10.12
2018-01-25T00:25:59.652Z,10.09
2018-01-25T00:26:59.673Z,10.15
2018-01-25T00:27:59.691Z,10.12
2018-01-25T00:28:59.713Z,10.19
2018-01-25T00:29:59.729Z,10.07
2018-01-25T00:30:59.748Z,10.04
2018-01-25T00:31:59.764Z,10.17
2018-01-25T00:32:59.786Z,10.12
2018-01-25T00:33:59.805Z,10.01
2018-01-25T00:34:59.823Z,10.00
2018-01-25T00:35:59.838Z,10.04
2018-01-25T00:36:59.859Z,10.06
2018-01-25T00:37:59.879Z,9.99
2018-01-25T00:38:59.899Z,10.03
2018-01-25T00:39:59.916Z,10.03
2018-01-25T00:40:59.935Z,10.04
2018-01-25T00:41:59.954Z,10.06
2018-01-25T00:42:59.971Z,10.00
2018-01-25T00:43:59.997Z,10.00
2018-01-25T00:45:00.020Z,10.03
2018-01-25T00:46:00.031Z,10.03
2018-01-25T00:47:00.063Z,10.03
2018-01-25T00:48:00.067Z,9.89
2018-01-25T00:49:00.083Z,9.89
2018-01-25T00:50:00.104Z,9.83
2018-01-25T00:51:00.122Z,9.89
2018-01-25T00:52:00.139Z,9.79
2018-01-25T00:53:00.160Z,9.83
2018-01-25T00:54:00.179Z,9.81
2018-01-25T00:55:00.198Z,9.79
2018-01-25T00:56:00.212Z,9.81
2018-01-25T00:57:00.233Z,9.81
2018-01-25T00:58:00.252Z,9.68
2018-01-25T00:59:00.269Z,9.78
2018-01-25T01:00:00.288Z,9.67
2018-01-25T01:01:00.308Z,9.70
2018-01-25T01:02:30.792Z,9.67
2018-01-25T01:03:02.777Z,9.70
2018-01-25T01:04:02.777Z,9.68
2018-01-25T01:05:01.404Z,9.58
2018-01-25T01:06:00.489Z,9.63
2018-01-25T01:07:00.477Z,9.56
2018-01-25T01:08:00.436Z,9.61
2018-01-25T01:09:00.455Z,9.45
2018-01-25T01:10:00.475Z,9.42
2018-01-25T01:11:00.493Z,9.48
2018-01-25T01:12:00.512Z,9.49
2018-01-25T01:13:00.528Z,9.56
2018-01-25T01:14:00.547Z,9.58
2018-01-25T01:15:00.566Z,9.64
2018-01-25T01:16:00.585Z,9.57
2018-01-25T01:17:00.601Z,9.63
2018-01-25T01:18:00.620Z,9.66
2018-01-25T01:19:00.641Z,9.61
2018-01-25T01:20:00.657Z,9.64
2018-01-25T01:21:00.676Z,9.57
2018-01-25T01:22:00.693Z,9.53
2018-01-25T01:23:00.713Z,9.52
2018-01-25T01:24:00.731Z,9.45
2018-01-25T01:25:00.748Z,9.45
2018-01-25T01:26:00.766Z,9.38
2018-01-25T01:27:00.777Z,9.40
2018-01-25T01:28:00.805Z,9.40
2018-01-25T01:29:00.824Z,9.28
2018-01-25T01:30:00.838Z,9.46
2018-01-25T01:31:00.858Z,9.40
2018-01-25T01:32:00.876Z,9.35
2018-01-25T01:33:00.893Z,9.40
2018-01-25T01:34:00.910Z,9.28
2018-01-25T01:35:00.927Z,9.27
2018-01-25T01:36:00.945Z,9.25
2018-01-25T01:37:00.967Z,9.31
2018-01-25T01:38:00.986Z,9.28
2018-01-25T01:39:01.002Z,9.27
2018-01-25T01:40:01.019Z,9.24
2018-01-25T01:41:01.041Z,9.25
2018-01-25T01:42:01.101Z,9.25
2018-01-25T01:43:01.075Z,9.21
2018-01-25T01:44:01.093Z,9.27
2018-01-25T01:45:01.111Z,9.28
2018-01-25T01:46:01.127Z,9.28
2018-01-25T01:47:01.146Z,9.30
2018-01-25T01:48:01.165Z,9.27
2018-01-25T01:49:01.184Z,9.32
2018-01-25T01:50:01.202Z,9.34
2018-01-25T01:51:01.215Z,9.25
2018-01-25T01:52:01.236Z,9.24
2018-01-25T01:53:01.255Z,9.27
2018-01-25T01:54:01.277Z,9.25
2018-01-25T01:55:01.293Z,9.34
2018-01-25T01:56:01.306Z,9.30
2018-01-25T01:57:01.330Z,9.25
2018-01-25T01:58:01.346Z,9.24
2018-01-25T01:59:01.365Z,9.30
2018-01-25T02:00:01.377Z,9.25
2018-01-25T02:01:01.400Z,9.28
2018-01-25T02:02:01.417Z,9.31
2018-01-25T02:03:01.436Z,9.27
2018-01-25T02:04:01.455Z,9.31
2018-01-25T02:05:01.473Z,9.38
2018-01-25T02:06:01.488Z,9.30
2018-01-25T02:07:01.511Z,9.39
2018-01-25T02:08:01.530Z,9.28
2018-01-25T02:09:01.553Z,9.27
2018-01-25T02:10:01.563Z,9.35
2018-01-25T02:11:01.583Z,9.34
2018-01-25T02:12:01.604Z,9.31
2018-01-25T02:13:01.619Z,9.38
2018-01-25T02:14:01.682Z,9.42
2018-01-25T02:15:01.653Z,9.35
2018-01-25T02:16:01.672Z,9.35
2018-01-25T02:17:01.691Z,9.30
2018-01-25T02:18:01.710Z,9.31
2018-01-25T02:19:01.728Z,9.27
2018-01-25T02:20:01.741Z,9.23
2018-01-25T02:21:01.767Z,9.31
2018-01-25T02:22:01.783Z,9.20
2018-01-25T02:23:01.797Z,9.20
2018-01-25T02:24:01.819Z,9.06
2018-01-25T02:25:01.836Z,9.16
2018-01-25T02:26:01.855Z,9.12
2018-01-25T02:27:01.871Z,9.13
2018-01-25T02:28:01.888Z,9.13
2018-01-25T02:29:01.907Z,9.04
2018-01-25T02:30:01.933Z,9.13
2018-01-25T02:31:01.945Z,9.16
2018-01-25T02:32:01.968Z,9.18
2018-01-25T02:33:01.974Z,9.20
2018-01-25T02:34:02.007Z,9.12
2018-01-25T02:35:02.016Z,9.15
2018-01-25T02:36:02.035Z,9.16
2018-01-25T02:37:02.053Z,9.12
2018-01-25T02:38:02.070Z,9.21
2018-01-25T02:39:02.090Z,9.10
2018-01-25T02:40:02.108Z,9.09
2018-01-25T02:41:02.129Z,9.13
2018-01-25T02:42:02.143Z,9.18
2018-01-25T02:43:02.158Z,9.02
2018-01-25T02:44:02.179Z,9.13
2018-01-25T02:45:02.194Z,9.01
2018-01-25T02:46:02.215Z,9.06
2018-01-25T02:47:02.232Z,9.05
2018-01-25T02:48:02.249Z,9.15
2018-01-25T02:49:02.271Z,9.10
2018-01-25T02:50:02.291Z,9.05
2018-01-25T02:51:02.304Z,9.10
2018-01-25T02:52:02.325Z,8.99
2018-01-25T02:53:02.342Z,9.10
2018-01-25T02:54:02.360Z,9.05
2018-01-25T02:55:02.378Z,9.05
2018-01-25T02:56:02.395Z,9.05
2018-01-25T02:57:02.416Z,8.99
2018-01-25T02:58:02.431Z,9.05
2018-01-25T02:59:02.455Z,9.05
2018-01-25T03:00:02.463Z,9.05
2018-01-25T03:01:02.487Z,9.13
2018-01-25T03:02:02.502Z,9.10
2018-01-25T03:03:02.522Z,9.02
2018-01-25T03:04:02.539Z,8.99
2018-01-25T03:05:02.557Z,9.12
2018-01-25T03:06:02.574Z,9.12
2018-01-25T03:07:02.592Z,9.10
2018-01-25T03:08:02.612Z,9.09
2018-01-25T03:09:02.629Z,9.10
2018-01-25T03:10:02.648Z,9.04
2018-01-25T03:11:02.665Z,9.06
2018-01-25T03:12:02.684Z,9.02
2018-01-25T03:13:02.702Z,9.02
2018-01-25T03:14:02.722Z,9.10
2018-01-25T03:15:02.740Z,9.02
2018-01-25T03:16:02.751Z,9.01
2018-01-25T03:17:02.775Z,9.05
2018-01-25T03:18:02.794Z,9.02
2018-01-25T03:19:02.809Z,9.05
2018-01-25T03:20:02.827Z,9.05
2018-01-25T03:21:02.846Z,9.10
2018-01-25T03:22:02.865Z,9.01
2018-01-25T03:23:02.879Z,9.04
2018-01-25T03:24:02.899Z,9.02
2018-01-25T03:25:02.920Z,9.09
2018-01-25T03:26:02.938Z,9.09
2018-01-25T03:27:02.954Z,9.04
2018-01-25T03:28:02.970Z,9.09
2018-01-25T03:29:02.993Z,9.04
2018-01-25T03:30:03.012Z,9.06
2018-01-25T03:31:03.030Z,9.02
2018-01-25T03:32:03.046Z,9.13
2018-01-25T03:33:03.065Z,9.13
2018-01-25T03:34:03.082Z,9.09
2018-01-25T03:35:03.100Z,9.10
2018-01-25T03:36:03.118Z,9.12
2018-01-25T03:37:03.136Z,9.13
2018-01-25T03:38:03.201Z,9.18
2018-01-25T03:39:03.173Z,9.01
2018-01-25T03:40:03.190Z,9.05
2018-01-25T03:41:03.204Z,9.06
2018-01-25T03:42:03.226Z,9.15
2018-01-25T03:43:03.242Z,9.02
2018-01-25T03:44:03.265Z,9.10
2018-01-25T03:45:03.280Z,9.05
2018-01-25T03:46:03.295Z,9.06
2018-01-25T03:47:03.314Z,9.16
2018-01-25T03:48:03.337Z,9.28
2018-01-25T03:49:03.353Z,9.16
2018-01-25T03:50:03.370Z,9.20
2018-01-25T03:51:03.388Z,9.10
2018-01-25T03:52:03.409Z,9.24
2018-01-25T03:53:03.427Z,9.20
2018-01-25T03:54:03.443Z,9.12
2018-01-25T03:55:03.467Z,9.06
2018-01-25T03:56:03.479Z,9.06
2018-01-25T03:57:03.497Z,9.06
2018-01-25T03:58:03.515Z,9.02
2018-01-25T03:59:03.534Z,9.04
2018-01-25T04:00:03.548Z,9.09
2018-01-25T04:01:03.569Z,9.10
2018-01-25T04:02:03.588Z,9.06
2018-01-25T04:03:03.603Z,8.91
2018-01-25T04:04:03.618Z,8.88
2018-01-25T04:05:03.638Z,8.91
2018-01-25T04:06:03.664Z,8.91
2018-01-25T04:07:03.673Z,8.94
2018-01-25T04:08:03.692Z,8.93
2018-01-25T04:09:03.711Z,8.93
2018-01-25T04:10:03.730Z,8.94
2018-01-25T04:11:03.750Z,8.96
2018-01-25T04:12:03.765Z,8.93
2018-01-25T04:13:03.791Z,8.91
2018-01-25T04:14:03.804Z,8.94
2018-01-25T04:15:03.819Z,8.96
2018-01-25T04:16:03.838Z,8.93
2018-01-25T04:17:03.856Z,8.93
2018-01-25T04:18:03.876Z,8.81
2018-01-25T04:19:03.897Z,8.87
2018-01-25T04:20:03.913Z,8.91
2018-01-25T04:21:03.930Z,8.84
2018-01-25T04:22:03.952Z,8.84
2018-01-25T04:23:03.965Z,8.81
2018-01-25T04:24:03.983Z,8.79
2018-01-25T04:25:04.000Z,8.88
2018-01-25T04:26:04.018Z,8.87
2018-01-25T04:27:04.038Z,8.93
2018-01-25T04:28:04.056Z,8.96
2018-01-25T04:29:04.074Z,8.90
2018-01-25T04:30:04.093Z,8.90
2018-01-25T04:31:04.112Z,8.91
2018-01-25T04:32:04.131Z,8.88
2018-01-25T04:33:04.145Z,8.97
2018-01-25T04:34:04.161Z,8.99
2018-01-25T04:35:04.176Z,8.93
2018-01-25T04:36:04.200Z,8.99
2018-01-25T04:37:04.217Z,8.91
2018-01-25T04:38:04.237Z,8.94
2018-01-25T04:39:04.252Z,8.96
2018-01-25T04:40:04.278Z,9.02
2018-01-25T04:41:04.288Z,8.91
2018-01-25T04:42:04.310Z,8.84
2018-01-25T04:43:04.327Z,8.84
2018-01-25T04:44:04.338Z,8.86
2018-01-25T04:45:04.357Z,8.84
2018-01-25T04:46:04.380Z,8.86
2018-01-25T04:47:04.401Z,8.87
2018-01-25T04:48:04.413Z,8.81
2018-01-25T04:49:04.439Z,8.78
2018-01-25T04:50:04.452Z,8.79
2018-01-25T04:51:04.470Z,8.69
2018-01-25T04:52:04.487Z,8.81
2018-01-25T04:53:04.505Z,8.87
2018-01-25T04:54:04.525Z,8.88
2018-01-25T04:55:04.542Z,8.93
2018-01-25T04:56:04.559Z,8.90
2018-01-25T04:57:04.578Z,8.86
2018-01-25T04:58:04.595Z,8.86
2018-01-25T04:59:04.612Z,8.88
2018-01-25T05:00:04.625Z,8.86
2018-01-25T05:01:04.641Z,8.86
2018-01-25T05:02:04.667Z,8.86
2018-01-25T05:03:04.684Z,8.88
2018-01-25T05:04:04.703Z,8.76
2018-01-25T05:05:04.720Z,8.75
2018-01-25T05:06:04.739Z,8.68
2018-01-25T05:07:04.758Z,8.68
2018-01-25T05:08:04.776Z,8.75
2018-01-25T05:09:04.794Z,8.72
2018-01-25T05:10:04.811Z,8.75
2018-01-25T05:11:04.831Z,8.75
2018-01-25T05:12:04.845Z,8.65
2018-01-25T05:13:04.862Z,8.73
2018-01-25T05:14:04.881Z,8.71
2018-01-25T05:15:04.893Z,8.72
2018-01-25T05:16:04.918Z,8.72
2018-01-25T05:17:04.934Z,8.79
2018-01-25T05:18:04.954Z,8.87
2018-01-25T05:19:04.972Z,8.90
2018-01-25T05:20:04.987Z,8.99
2018-01-25T05:21:05.010Z,8.97
2018-01-25T05:22:05.025Z,8.94
2018-01-25T05:23:05.047Z,8.91
2018-01-25T05:24:05.060Z,8.97
2018-01-25T05:25:05.080Z,9.06
2018-01-25T05:26:05.099Z,8.96
2018-01-25T05:27:05.111Z,9.01
2018-01-25T05:28:05.135Z,8.91
2018-01-25T05:29:05.151Z,8.86
2018-01-25T05:30:05.171Z,8.84
2018-01-25T05:31:05.189Z,8.87
2018-01-25T05:32:05.206Z,8.68
2018-01-25T05:33:05.226Z,8.83
2018-01-25T05:34:05.243Z,8.72
2018-01-25T05:35:05.263Z,8.81
2018-01-25T05:36:05.272Z,8.79
2018-01-25T05:37:05.297Z,8.81
2018-01-25T05:38:05.313Z,8.79
2018-01-25T05:39:05.333Z,8.84
2018-01-25T05:40:05.349Z,8.81
2018-01-25T05:41:05.370Z,8.90
2018-01-25T05:42:05.386Z,8.83
2018-01-25T05:43:05.406Z,8.79
2018-01-25T05:44:05.424Z,8.93
2018-01-25T05:45:05.441Z,8.88
2018-01-25T05:46:05.457Z,8.86
2018-01-25T05:47:05.473Z,8.84
2018-01-25T05:48:05.495Z,8.79
2018-01-25T05:49:05.513Z,8.79
2018-01-25T05:50:05.531Z,8.81
2018-01-25T05:51:05.548Z,8.81
2018-01-25T05:52:05.575Z,8.88
2018-01-25T05:53:05.588Z,8.84
2018-01-25T05:54:05.605Z,8.84
2018-01-25T05:55:05.620Z,8.87
2018-01-25T05:56:05.639Z,8.87
2018-01-25T05:57:05.658Z,8.87
2018-01-25T05:58:05.674Z,8.84
2018-01-25T05:59:05.701Z,8.86
2018-01-25T06:00:05.705Z,8.90
2018-01-25T06:01:05.735Z,8.88
2018-01-25T06:02:05.748Z,8.97
2018-01-25T06:03:05.762Z,8.96
2018-01-25T06:04:05.782Z,8.97
2018-01-25T06:05:05.802Z,8.91
2018-01-25T06:06:05.819Z,8.94
2018-01-25T06:07:05.837Z,8.94
2018-01-25T06:08:05.852Z,8.99
2018-01-25T06:09:05.882Z,8.97
2018-01-25T06:10:05.901Z,8.99
2018-01-25T06:11:05.914Z,8.93
2018-01-25T06:12:05.925Z,8.97
2018-01-25T06:13:05.947Z,8.99
2018-01-25T06:14:05.964Z,8.90
2018-01-25T06:15:05.983Z,8.90
2018-01-25T06:16:06.007Z,9.02
2018-01-25T06:17:06.016Z,9.02
2018-01-25T06:18:06.037Z,8.99
2018-01-25T06:19:06.056Z,9.04
2018-01-25T06:20:06.073Z,9.04
2018-01-25T06:21:06.088Z,9.06
2018-01-25T06:22:06.117Z,9.01
2018-01-25T06:23:06.132Z,8.93
2018-01-25T06:24:06.148Z,8.86
2018-01-25T06:25:06.166Z,8.87
2018-01-25T06:26:06.181Z,8.84
2018-01-25T06:27:06.199Z,8.81
2018-01-25T06:28:06.219Z,8.83
2018-01-25T06:29:06.237Z,8.93
2018-01-25T06:30:06.252Z,8.90
2018-01-25T06:31:06.270Z,8.84
2018-01-25T06:32:06.291Z,8.90
2018-01-25T06:33:06.309Z,8.86
2018-01-25T06:34:06.331Z,8.83
2018-01-25T06:35:06.345Z,8.81
2018-01-25T06:36:06.368Z,8.75
2018-01-25T06:37:06.389Z,8.73
2018-01-25T06:38:06.405Z,8.68
2018-01-25T06:39:06.423Z,8.71
2018-01-25T06:40:06.445Z,8.63
2018-01-25T06:41:06.460Z,8.62
2018-01-25T06:42:06.475Z,8.62
2018-01-25T06:43:06.486Z,8.58
2018-01-25T06:44:06.513Z,8.50
2018-01-25T06:45:06.523Z,8.62
2018-01-25T06:46:06.540Z,8.65
2018-01-25T06:47:06.564Z,8.63
2018-01-25T06:48:06.578Z,8.69
2018-01-25T06:49:06.596Z,8.72
2018-01-25T06:50:06.609Z,8.75
2018-01-25T06:51:06.639Z,8.72
2018-01-25T06:52:06.649Z,8.73
2018-01-25T06:53:06.666Z,8.72
2018-01-25T06:54:06.687Z,8.71
2018-01-25T06:55:06.714Z,8.72
2018-01-25T06:56:06.719Z,8.76
2018-01-25T06:57:06.749Z,8.73
2018-01-25T06:58:06.767Z,8.75
2018-01-25T06:59:06.767Z,8.68
2018-01-25T07:00:06.818Z,8.84
2018-01-25T07:01:06.807Z,8.75
2018-01-25T07:02:06.828Z,8.79
2018-01-25T07:03:06.926Z,8.73
2018-01-25T07:04:06.864Z,8.78
2018-01-25T07:05:06.891Z,8.71
2018-01-25T07:06:06.901Z,8.75
2018-01-25T07:07:06.921Z,8.72
2018-01-25T07:08:06.939Z,8.73
2018-01-25T07:09:06.951Z,8.73
2018-01-25T07:10:06.996Z,8.71
2018-01-25T07:11:07.040Z,8.68
2018-01-25T07:12:07.363Z,8.75
2018-01-25T07:13:07.029Z,8.86
2018-01-25T07:14:07.050Z,8.86
2018-01-25T07:15:07.060Z,8.86
2018-01-25T07:16:07.083Z,8.88
2018-01-25T07:17:07.137Z,8.90
2018-01-25T07:18:07.115Z,8.90
2018-01-25T07:19:07.130Z,8.87
2018-01-25T07:20:07.145Z,8.90
2018-01-25T07:21:07.171Z,8.97
2018-01-25T07:22:07.191Z,8.87
2018-01-25T07:23:07.208Z,8.99
2018-01-25T07:24:07.230Z,8.97
2018-01-25T07:25:07.237Z,8.87
2018-01-25T07:26:07.273Z,8.97
2018-01-25T07:27:07.282Z,8.96
2018-01-25T07:28:07.293Z,9.09
2018-01-25T07:29:07.308Z,9.02
2018-01-25T07:30:07.334Z,9.01
2018-01-25T07:31:07.350Z,9.02
2018-01-25T07:32:07.371Z,8.99
2018-01-25T07:33:07.380Z,8.99
2018-01-25T07:34:07.396Z,9.05
2018-01-25T07:35:07.444Z,9.10
2018-01-25T07:36:07.439Z,9.09
2018-01-25T07:37:08.358Z,9.05
2018-01-25T07:38:07.475Z,9.05
2018-01-25T07:39:07.501Z,9.02
2018-01-25T07:40:07.503Z,9.02
2018-01-25T07:41:07.578Z,9.06
2018-01-25T07:42:07.541Z,8.99
2018-01-25T07:43:07.565Z,8.99
2018-01-25T07:44:07.580Z,8.90
2018-01-25T07:45:07.591Z,8.90
2018-01-25T07:46:07.609Z,8.96
2018-01-25T07:47:07.631Z,9.05
2018-01-25T07:48:07.647Z,9.05
2018-01-25T07:49:07.663Z,9.10
2018-01-25T07:50:07.685Z,9.12
2018-01-25T07:51:07.704Z,9.12
2018-01-25T07:52:07.728Z,9.15
2018-01-25T07:53:07.742Z,9.21
2018-01-25T07:54:07.760Z,9.23
2018-01-25T07:55:07.788Z,9.15
2018-01-25T07:56:07.799Z,9.18
2018-01-25T07:57:07.816Z,9.21
2018-01-25T07:58:07.848Z,9.20
2018-01-25T07:59:07.846Z,9.12
2018-01-25T08:00:07.867Z,9.16
2018-01-25T08:01:07.885Z,9.12
2018-01-25T08:02:07.895Z,9.25
2018-01-25T08:03:07.920Z,9.25
2018-01-25T08:04:07.949Z,9.20
2018-01-25T08:05:07.970Z,9.12
2018-01-25T08:06:07.983Z,9.18
2018-01-25T08:07:07.989Z,9.18
2018-01-25T08:08:08.006Z,9.10
2018-01-25T08:09:08.030Z,9.20
2018-01-25T08:10:08.045Z,9.21
2018-01-25T08:11:08.075Z,9.21
2018-01-25T08:12:08.084Z,9.18
2018-01-25T08:13:08.108Z,9.31
2018-01-25T08:14:08.115Z,9.25
2018-01-25T08:15:08.133Z,9.32
2018-01-25T08:16:08.151Z,9.39
2018-01-25T08:17:08.181Z,9.38
2018-01-25T08:18:08.189Z,9.31
2018-01-25T08:19:08.210Z,9.32
2018-01-25T08:20:08.232Z,9.34
2018-01-25T08:21:08.250Z,9.42
2018-01-25T08:22:08.264Z,9.39
2018-01-25T08:23:08.276Z,9.31
2018-01-25T08:24:08.299Z,9.42
2018-01-25T08:25:08.316Z,9.35
2018-01-25T08:26:08.331Z,9.39
2018-01-25T08:27:08.373Z,9.46
2018-01-25T08:28:08.371Z,9.42
2018-01-25T08:29:08.392Z,9.57
2018-01-25T08:30:08.400Z,9.64
2018-01-25T08:31:08.421Z,9.52
2018-01-25T08:32:08.442Z,9.64
2018-01-25T08:33:08.460Z,9.57
2018-01-25T08:34:08.480Z,9.61
2018-01-25T08:35:08.520Z,9.73
2018-01-25T08:36:08.524Z,9.58
2018-01-25T08:37:08.538Z,9.60
2018-01-25T08:38:08.550Z,9.78
2018-01-25T08:39:08.602Z,9.73
2018-01-25T08:40:08.593Z,9.71
2018-01-25T08:41:08.602Z,9.76
2018-01-25T08:42:08.634Z,9.83
2018-01-25T08:43:08.639Z,9.83
2018-01-25T08:44:08.657Z,9.79
2018-01-25T08:45:08.699Z,9.85
2018-01-25T08:46:08.701Z,9.78
2018-01-25T08:47:08.728Z,9.85
2018-01-25T08:48:08.726Z,9.78
2018-01-25T08:49:08.752Z,9.82
2018-01-25T08:50:08.767Z,9.81
2018-01-25T08:51:08.800Z,9.78
2018-01-25T08:52:08.802Z,9.75
2018-01-25T08:53:08.821Z,9.81
2018-01-25T08:54:08.842Z,9.91
2018-01-25T08:55:08.858Z,9.88
2018-01-25T08:56:08.881Z,9.88
2018-01-25T08:57:08.898Z,9.78
2018-01-25T08:58:08.915Z,9.88
2018-01-25T08:59:08.953Z,9.71
2018-01-25T09:00:08.954Z,9.79
2018-01-25T09:01:08.976Z,9.70
2018-01-25T09:02:08.997Z,9.81
2018-01-25T09:03:09.013Z,9.75
2018-01-25T09:04:09.026Z,9.88
2018-01-25T09:05:09.050Z,9.85
2018-01-25T09:06:09.069Z,9.82
2018-01-25T09:07:09.856Z,9.93
2018-01-25T09:08:09.153Z,9.96
2018-01-25T09:09:09.122Z,9.99
2018-01-25T09:10:09.134Z,9.86
2018-01-25T09:11:09.178Z,9.97
2018-01-25T09:12:09.242Z,9.97
2018-01-25T09:13:09.234Z,9.86
2018-01-25T09:14:09.289Z,9.94
2018-01-25T09:15:09.239Z,9.93
2018-01-25T09:16:09.249Z,9.96
2018-01-25T09:17:09.265Z,9.94
2018-01-25T09:18:09.285Z,9.96
2018-01-25T09:19:09.643Z,9.99
2018-01-25T09:20:09.335Z,9.93
2018-01-25T09:21:09.343Z,10.01
2018-01-25T09:22:09.388Z,10.03
2018-01-25T09:23:09.379Z,10.10
2018-01-25T09:24:09.392Z,10.12
2018-01-25T09:25:09.420Z,10.24
2018-01-25T09:26:09.435Z,10.22
2018-01-25T09:27:09.448Z,10.32
2018-01-25T09:28:09.478Z,10.22
2018-01-25T09:29:09.493Z,10.26
2018-01-25T09:30:09.550Z,10.33
2018-01-25T09:31:09.545Z,10.32
2018-01-25T09:32:09.556Z,10.33
2018-01-25T09:33:09.605Z,10.32
2018-01-25T09:34:09.591Z,10.25
2018-01-25T09:35:09.604Z,10.25
2018-01-25T09:36:09.626Z,10.32
2018-01-25T09:37:09.644Z,10.37
2018-01-25T09:38:09.654Z,10.40
2018-01-25T09:39:09.679Z,10.39
2018-01-25T09:40:09.735Z,10.52
2018-01-25T09:41:09.719Z,10.46
2018-01-25T09:42:09.739Z,10.53
2018-01-25T09:43:09.759Z,10.53
2018-01-25T09:44:09.776Z,10.53
2018-01-25T09:45:09.787Z,10.47
2018-01-25T09:46:10.363Z,10.46
2018-01-25T09:47:09.830Z,10.46
2018-01-25T09:48:10.361Z,10.36
2018-01-25T09:49:09.876Z,10.43
2018-01-25T09:50:09.910Z,10.43
2018-01-25T09:51:09.908Z,10.47
2018-01-25T09:52:09.919Z,10.51
2018-01-25T09:53:09.943Z,10.40
2018-01-25T09:54:09.956Z,10.56
2018-01-25T09:55:09.972Z,10.52
2018-01-25T09:56:10.005Z,10.63
2018-01-25T09:57:10.020Z,10.70
2018-01-25T09:58:10.039Z,10.70
2018-01-25T09:59:10.060Z,10.73
2018-01-25T10:00:10.071Z,10.78
2018-01-25T10:01:10.098Z,10.78
2018-01-25T10:02:10.115Z,10.71
2018-01-25T10:03:10.133Z,10.78
2018-01-25T10:04:10.192Z,10.60
2018-01-25T10:05:10.166Z,10.60
2018-01-25T10:06:10.184Z,10.70
2018-01-25T10:07:10.213Z,10.73
2018-01-25T10:08:10.221Z,10.66
2018-01-25T10:09:10.242Z,10.68
2018-01-25T10:10:10.264Z,10.76
2018-01-25T10:11:10.285Z,10.77
2018-01-25T10:12:10.298Z,10.80
2018-01-25T10:13:10.317Z,10.81
2018-01-25T10:14:10.341Z,10.86
2018-01-25T10:15:10.363Z,10.86
2018-01-25T10:16:10.381Z,10.91
2018-01-25T10:17:10.401Z,10.89
2018-01-25T10:18:10.415Z,10.91
2018-01-25T10:19:10.431Z,10.95
2018-01-25T10:20:10.446Z,10.95
2018-01-25T10:21:10.533Z,10.98
2018-01-25T10:22:10.497Z,10.98
2018-01-25T10:23:10.517Z,10.99
2018-01-25T10:24:10.530Z,10.96
2018-01-25T10:25:10.553Z,10.89
2018-01-25T10:26:10.566Z,10.95
2018-01-25T10:27:10.593Z,11.02
2018-01-25T10:28:10.609Z,11.03
2018-01-25T10:29:10.644Z,11.01
2018-01-25T10:30:10.650Z,11.07
2018-01-25T10:31:10.679Z,11.01
2018-01-25T10:32:10.681Z,10.95
2018-01-25T10:33:10.701Z,10.98
2018-01-25T10:34:10.720Z,11.07
2018-01-25T10:35:10.743Z,11.07
2018-01-25T10:36:10.765Z,11.06
2018-01-25T10:37:10.777Z,11.19
2018-01-25T10:38:10.804Z,11.25
2018-01-25T10:39:10.824Z,11.25
2018-01-25T10:40:10.844Z,11.32
2018-01-25T10:41:10.855Z,11.41
2018-01-25T10:42:10.877Z,11.36
2018-01-25T10:43:10.892Z,11.41
2018-01-25T10:44:10.915Z,11.44
2018-01-25T10:45:10.933Z,11.39
2018-01-25T10:46:10.960Z,11.29
2018-01-25T10:47:10.972Z,11.20
2018-01-25T10:48:10.993Z,11.19
2018-01-25T10:49:11.016Z,11.17
2018-01-25T10:50:11.032Z,11.24
2018-01-25T10:51:11.047Z,11.19
2018-01-25T10:52:11.071Z,11.34
2018-01-25T10:53:11.092Z,11.35
2018-01-25T10:54:11.112Z,11.25
2018-01-25T10:55:11.131Z,11.20
2018-01-25T10:56:11.149Z,11.31
2018-01-25T10:57:11.168Z,11.28
2018-01-25T10:58:11.187Z,11.27
2018-01-25T10:59:11.203Z,11.28
2018-01-25T11:00:11.227Z,11.28
2018-01-25T11:01:11.246Z,11.28
2018-01-25T11:02:11.272Z,11.36
2018-01-25T11:03:11.281Z,11.43
2018-01-25T11:04:11.314Z,11.39
2018-01-25T11:05:11.325Z,11.43
2018-01-25T11:06:11.343Z,11.39
2018-01-25T11:07:11.374Z,11.49
2018-01-25T11:08:11.385Z,11.41
2018-01-25T11:09:11.404Z,11.47
2018-01-25T11:10:11.424Z,11.47
2018-01-25T11:11:11.440Z,11.49
2018-01-25T11:12:11.465Z,11.47
2018-01-25T11:13:11.483Z,11.49
2018-01-25T11:14:11.506Z,11.47
2018-01-25T11:15:11.581Z,11.53
2018-01-25T11:16:11.542Z,11.52
2018-01-25T11:17:11.565Z,11.49
2018-01-25T11:18:11.590Z,11.61
2018-01-25T11:19:11.601Z,11.59
2018-01-25T11:20:11.621Z,11.72
2018-01-25T11:21:11.642Z,11.75
2018-01-25T11:22:11.662Z,11.72
2018-01-25T11:23:11.686Z,11.80
2018-01-25T11:24:11.700Z,11.78
2018-01-25T11:25:11.721Z,11.83
2018-01-25T11:26:11.740Z,11.75
2018-01-25T11:27:11.760Z,11.72
2018-01-25T11:28:11.788Z,11.77
2018-01-25T11:29:11.801Z,11.75
2018-01-25T11:30:11.819Z,11.77
2018-01-25T11:31:11.846Z,11.86
2018-01-25T11:34:41.439Z,11.93
